Terminal Aerodrome Forecast
Issued by NWS

Home | Current Version | Previous Version | Text Only | Print | Product List | Glossary On
Versions: 1 2 3 4 5 6 7 8 9 10 11 12 13 14
000
FTUS46 KSEW 270500 RRA
TAFOLM
TAF
KOLM 270550Z 2706/2806 VRB04KT P6SM SCT250
     FM270800 00000KT 1SM BR OVC008
      TEMPO 2708/2711 1/2SM FG BKN001
     FM271100 00000KT 1/2SM FG VV001
     FM271800 20005KT P6SM SCT020 BKN120 BKN200
     FM272100 18008KT P6SM BKN030 BKN070 OVC120
     FM280000 22008KT P6SM OVC030=

USA.gov is the U.S. government's official web portal to all federal, state and local government web resources and services.